Hartwick, IA

1:16 AM CDT on July 30, 2015 (GMT -0500)
503Farms | | Change Station
CLOSE
Current Station
Personal Weather Station
Location: Belle Plaine, IA
Elevation: 883 ft
Nearby Weather Stations

Elev 883 ft 41.95 °N, 92.25 °W | Updated 8 minutes ago

Clear
Clear
58.8 °F
Feels Like 58.8 °F
N
0.0
Wind Variable Wind from SSW

Today
High -- | Low -- °F
--% Chance of Precip.
Yesterday
High -- | Low -- °F
Precip. -- in
6:01 AM 8:29 PM
Waxing Gibbous, 98% visible
Pressure 30.14 in
Visibility 10.0 miles
Clouds Clear
Dew Point 56 °F
Humidity 90%
Rainfall 0.00 in
Snow Depth Not available.
UV 0 out of 12
Pollen .40 out of 12
Air Quality Not available.
Flu Activity Not available.
METAR KGGI 300555Z AUTO 23007KT 10SM CLR 18/15 A3014 RMK AO2 T01800152 10261 20177 402740177

More Conditions Fewer Conditions

Pressure 30.14 in
Visibility 10.0 miles
Clouds Clear
Dew Point 56 °F
Humidity 90%
Rainfall 0.00 in
Snow Depth Not available.
UV 0 out of 12
Pollen .40 out of 12
Air Quality Not available.
Flu Activity Not available.
METAR KGGI 300555Z AUTO 23007KT 10SM CLR 18/15 A3014 RMK AO2 T01800152 10261 20177 402740177

More Conditions Fewer Conditions

10-Day Weather Forecast

×

Almanac

Astronomy

Jul. 30, 2015 Rise Set
Actual Time
Civil Twilight
Nautical Twilight
Astronomical Twilight
Moon
Length of Visible Light
Length of Day
Tomorrow will be .
, % of the Moon is Illuminated

Today's Extremes

State Highs State Lows

Community

WunderPhotos

Upload Photos

1,842,312 photos uploaded!

WunderBlogs® & News

Nearby

Air Quality

  Air Quality AQ Index Pollutant
Not available.

Snow Depth

Station Depth Elevation

Earthquake Activity

City Distance Mag. Time & Date
Minimum magnitude displayed is 2.5.

Coastal Water Temperatures

Place Temperature

Stations

Nearby Weather Stations

Station Location Temp. Windchill Dew Point Humidity Wind Precip. Elev Updated Type